Time;durP1;ratioP1;P1;durP2;ratioP2;P2;SDS_P1;SDS_P2;PMS_P1;PMS_P2;Temp;Humidity;BMP_temperature;BMP_pressure;BME280_temperature;BME280_humidity;BME280_pressure;Samples;Min_cycle;Max_cycle;Signal;HPM_P1;HPM_P2
2022/12/23 00:00:06;;;;;;;317.15;50.50;;;7.60;99.90;;;;;;4939093;28;20054;-88
2022/12/23 00:02:31;;;;;;;124.30;39.88;;;7.60;99.90;;;;;;4933081;29;20180;-88
2022/12/23 00:04:59;;;;;;;62.05;35.10;;;8.80;99.90;;;;;;4935882;28;20158;-88
2022/12/23 00:07:24;;;;;;;118.18;39.33;;;7.60;99.90;;;;;;4936134;28;20378;-88
2022/12/23 00:09:50;;;;;;;117.63;36.42;;;7.60;99.90;;;;;;4942794;28;20139;-88
2022/12/23 00:15:10;;;;;;;57.03;31.98;;;7.60;99.90;;;;;;4937149;28;20130;-88
2022/12/23 00:17:40;;;;;;;129.65;39.92;;;7.60;99.90;;;;;;4939779;28;20044;-88
2022/12/23 00:20:07;;;;;;;130.45;39.88;;;7.60;99.90;;;;;;4944834;29;20058;-88
2022/12/23 00:25:38;;;;;;;93.70;37.67;;;7.60;99.90;;;;;;4937022;29;20044;-87
2022/12/23 00:28:13;;;;;;;74.63;34.63;;;7.50;99.90;;;;;;4939388;29;20395;-87
2022/12/23 00:30:47;;;;;;;74.68;35.92;;;7.50;99.90;;;;;;4938880;29;20106;-88
2022/12/23 00:33:23;;;;;;;75.93;35.10;;;7.60;99.90;;;;;;4936833;28;20049;-88
2022/12/23 00:35:50;;;;;;;82.82;37.17;;;7.60;99.90;;;;;;4937761;29;20062;-88
2022/12/23 00:42:52;;;;;;;74.50;35.88;;;7.60;99.90;;;;;;4939597;28;20058;-88
2022/12/23 00:43:47;;;;;;;79.78;35.83;;;7.60;99.90;;;;;;4947038;29;20047;-88
2022/12/23 00:46:12;;;;;;;173.80;43.40;;;7.60;99.90;;;;;;4938037;28;20043;-87
2022/12/23 00:51:25;;;;;;;59.20;32.63;;;7.60;99.90;;;;;;4937924;28;20055;-88
2022/12/23 00:53:51;;;;;;;69.30;34.25;;;7.60;99.90;;;;;;4938912;28;20047;-88
2022/12/23 00:56:16;;;;;;;64.10;33.47;;;7.60;99.90;;;;;;4936488;28;20043;-88
2022/12/23 00:58:42;;;;;;;56.03;31.58;;;7.60;99.90;;;;;;4941566;28;20891;-88
2022/12/23 01:06:39;;;;;;;58.83;32.22;;;7.70;99.90;;;;;;4942549;29;20043;-89
2022/12/23 01:09:04;;;;;;;63.63;33.75;;;7.70;99.90;;;;;;4944249;29;20112;-87
2022/12/23 01:11:30;;;;;;;192.40;43.03;;;7.80;99.90;;;;;;4947235;29;20674;-88
2022/12/23 01:13:57;;;;;;;72.38;35.17;;;7.70;99.90;;;;;;4945866;29;20632;-89
2022/12/23 01:16:25;;;;;;;147.73;41.95;;;7.80;99.90;;;;;;4942080;28;20118;-89
2022/12/23 01:18:53;;;;;;;73.70;34.55;;;7.80;99.90;;;;;;4942030;28;20062;-88
2022/12/23 01:21:19;;;;;;;67.47;35.75;;;7.80;99.90;;;;;;4927841;29;20043;-89
2022/12/23 01:23:45;;;;;;;106.57;39.47;;;7.80;99.90;;;;;;4939357;29;20052;-89
2022/12/23 01:26:11;;;;;;;100.90;39.22;;;7.80;99.90;;;;;;4940958;29;20051;-88
2022/12/23 01:28:36;;;;;;;93.63;37.22;;;7.80;99.90;;;;;;4944086;28;20178;-88
2022/12/23 01:31:04;;;;;;;82.75;34.90;;;7.80;99.90;;;;;;4923549;29;20087;-88
2022/12/23 01:33:31;;;;;;;96.90;36.88;;;7.80;99.90;;;;;;4944199;29;20047;-88
2022/12/23 01:36:01;;;;;;;94.82;37.33;;;7.80;99.90;;;;;;4929622;29;20039;-88
2022/12/23 01:38:27;;;;;;;98.47;36.83;;;7.80;99.90;;;;;;4938033;29;20101;-88
2022/12/23 01:40:52;;;;;;;216.57;43.95;;;7.80;99.90;;;;;;4942230;28;20581;-88
2022/12/23 01:43:19;;;;;;;78.75;35.67;;;7.80;99.90;;;;;;4937182;29;20083;-88
2022/12/23 01:45:45;;;;;;;91.72;36.35;;;7.80;99.90;;;;;;4943946;28;20118;-88
2022/12/23 01:48:16;;;;;;;99.07;37.80;;;8.00;99.90;;;;;;4940313;28;20688;-88
2022/12/23 01:51:01;;;;;;;69.30;34.42;;;7.80;99.90;;;;;;4942549;28;20051;-88
2022/12/23 01:53:38;;;;;;;77.90;34.65;;;7.70;99.90;;;;;;4940386;29;20752;-88
2022/12/23 01:56:15;;;;;;;67.70;35.33;;;7.80;99.90;;;;;;4938661;29;20058;-88
2022/12/23 01:58:57;;;;;;;75.80;36.60;;;7.80;99.90;;;;;;4931208;29;20351;-88
2022/12/23 02:04:12;;;;;;;85.03;35.72;;;7.70;99.90;;;;;;4938220;29;20097;-88
2022/12/23 02:09:30;;;;;;;64.43;34.97;;;7.80;99.90;;;;;;4943704;28;20102;-88
2022/12/23 02:12:01;;;;;;;103.38;37.13;;;7.80;99.90;;;;;;4938013;28;20051;-88
2022/12/23 02:17:41;;;;;;;76.15;35.17;;;7.70;99.90;;;;;;4939267;29;20141;-88
2022/12/23 02:20:34;;;;;;;61.97;33.42;;;7.80;99.90;;;;;;4940264;29;20051;-88
2022/12/23 02:23:23;;;;;;;70.45;34.78;;;7.80;99.90;;;;;;4930320;29;20053;-88
2022/12/23 02:25:52;;;;;;;91.00;36.28;;;7.80;99.90;;;;;;4944415;29;20503;-88
2022/12/23 02:28:59;;;;;;;60.58;31.13;;;7.80;99.90;;;;;;4938262;28;20134;-88
2022/12/23 02:31:25;;;;;;;66.30;33.45;;;7.80;99.90;;;;;;4932608;29;20055;-88
2022/12/23 02:34:07;;;;;;;63.58;34.25;;;7.80;99.90;;;;;;4938347;28;20402;-87
2022/12/23 02:36:40;;;;;;;53.03;30.70;;;7.40;99.90;;;;;;4940209;29;20050;-87
2022/12/23 02:39:18;;;;;;;138.82;37.92;;;7.80;99.90;;;;;;4926641;29;20040;-88
2022/12/23 02:42:02;;;;;;;56.72;30.40;;;7.80;99.90;;;;;;4939944;29;20047;-88
2022/12/23 02:44:51;;;;;;;64.80;31.85;;;7.80;99.90;;;;;;4938193;29;20055;-88
2022/12/23 02:47:26;;;;;;;72.90;33.47;;;7.80;99.90;;;;;;4926791;29;20043;-88
2022/12/23 02:49:56;;;;;;;70.90;33.10;;;8.10;99.90;;;;;;4943009;29;20035;-88
2022/12/23 02:52:29;;;;;;;72.15;31.70;;;8.10;99.90;;;;;;4937434;28;20300;-88
2022/12/23 02:55:00;;;;;;;82.82;35.20;;;7.80;99.90;;;;;;4939567;28;20047;-88
2022/12/23 02:57:37;;;;;;;147.70;39.00;;;7.80;99.90;;;;;;4940616;28;20051;-88
2022/12/23 03:00:05;;;;;;;67.35;32.83;;;7.70;99.90;;;;;;4935825;29;20043;-87
2022/12/23 03:02:36;;;;;;;64.00;33.25;;;7.80;99.90;;;;;;4943556;29;20506;-88
2022/12/23 03:05:03;;;;;;;62.10;33.20;;;7.80;99.90;;;;;;4931344;29;20031;-87
2022/12/23 03:07:39;;;;;;;61.00;31.65;;;7.80;99.90;;;;;;4938114;28;20479;-88
2022/12/23 03:10:23;;;;;;;74.75;33.78;;;7.80;99.90;;;;;;4956534;28;20127;-88
2022/12/23 03:12:51;;;;;;;58.42;31.95;;;7.80;99.90;;;;;;4941307;29;20040;-88
2022/12/23 03:15:39;;;;;;;62.78;33.08;;;7.80;99.90;;;;;;4939478;29;20046;-88
2022/12/23 03:18:19;;;;;;;74.93;33.00;;;8.00;99.90;;;;;;4938470;28;20050;-88
2022/12/23 03:21:07;;;;;;;90.55;34.17;;;7.80;99.90;;;;;;4940388;28;20047;-88
2022/12/23 03:24:02;;;;;;;127.60;35.33;;;7.80;99.90;;;;;;4936778;28;20384;-88
2022/12/23 03:26:46;;;;;;;49.40;27.67;;;7.80;99.90;;;;;;4921943;29;20098;-88
2022/12/23 03:29:18;;;;;;;63.83;27.70;;;7.80;99.90;;;;;;4943705;29;20055;-88
2022/12/23 03:31:46;;;;;;;53.33;26.83;;;7.80;99.90;;;;;;4942441;29;20054;-88
2022/12/23 03:34:17;;;;;;;49.03;26.23;;;7.80;99.90;;;;;;4925038;29;20486;-89
2022/12/23 03:36:49;;;;;;;39.70;24.73;;;7.80;99.90;;;;;;4936089;29;20051;-88
2022/12/23 03:39:18;;;;;;;55.47;25.55;;;7.80;99.90;;;;;;4927892;29;20052;-88
2022/12/23 03:41:51;;;;;;;83.82;29.23;;;7.80;99.90;;;;;;4925179;29;20046;-89
2022/12/23 03:44:31;;;;;;;47.95;24.65;;;7.90;99.90;;;;;;4928736;29;20799;-89
2022/12/23 03:47:09;;;;;;;49.42;24.70;;;7.80;99.90;;;;;;4937732;29;20494;-87
2022/12/23 03:49:41;;;;;;;44.03;23.50;;;7.80;99.90;;;;;;4934742;29;20169;-88
2022/12/23 03:52:19;;;;;;;43.85;23.27;;;7.80;99.90;;;;;;4934495;28;20043;-88
2022/12/23 03:54:56;;;;;;;39.03;22.33;;;7.80;99.90;;;;;;4931129;28;20078;-88
2022/12/23 03:57:27;;;;;;;41.10;22.15;;;7.80;99.90;;;;;;4932588;29;20483;-88
2022/12/23 03:59:53;;;;;;;48.15;24.00;;;8.60;99.90;;;;;;4934890;28;20039;-89
2022/12/23 04:02:40;;;;;;;39.72;22.33;;;8.40;99.90;;;;;;4922813;29;20491;-87
2022/12/23 04:05:18;;;;;;;45.63;23.83;;;7.80;99.90;;;;;;4927966;29;20037;-87
2022/12/23 04:07:53;;;;;;;38.88;22.15;;;7.80;99.90;;;;;;4936588;29;20074;-87
2022/12/23 04:10:20;;;;;;;50.63;23.50;;;7.80;99.90;;;;;;4927574;29;20046;-88
2022/12/23 04:12:47;;;;;;;48.67;23.30;;;7.80;99.90;;;;;;4920065;29;20128;-88
2022/12/23 04:15:17;;;;;;;47.03;22.92;;;7.80;99.90;;;;;;4941657;28;20047;-88
2022/12/23 04:17:42;;;;;;;43.45;21.75;;;7.70;99.90;;;;;;4943745;29;20071;-88
2022/12/23 04:20:09;;;;;;;46.90;21.95;;;7.70;99.90;;;;;;4938317;29;20035;-88
2022/12/23 04:22:42;;;;;;;52.67;24.90;;;7.70;99.90;;;;;;4940478;28;20062;-89
2022/12/23 04:25:15;;;;;;;66.60;23.83;;;7.60;99.90;;;;;;4938687;28;20043;-88
2022/12/23 04:27:41;;;;;;;50.53;23.50;;;7.70;99.90;;;;;;4930421;29;20133;-88
2022/12/23 04:30:09;;;;;;;54.22;23.70;;;7.70;99.90;;;;;;4928481;29;20035;-88
2022/12/23 04:32:34;;;;;;;65.95;25.50;;;7.60;99.90;;;;;;4929762;29;20513;-87
2022/12/23 04:35:00;;;;;;;48.85;22.45;;;7.60;99.90;;;;;;4936938;29;20040;-88
2022/12/23 04:37:26;;;;;;;48.58;22.15;;;7.60;99.90;;;;;;4942569;29;20058;-88
2022/12/23 04:39:52;;;;;;;57.08;22.55;;;7.60;99.90;;;;;;4925974;29;20099;-89
2022/12/23 04:42:17;;;;;;;48.08;22.58;;;7.50;99.90;;;;;;4938570;28;20097;-88
2022/12/23 04:44:43;;;;;;;61.13;22.88;;;7.50;99.90;;;;;;4926510;29;20052;-87
2022/12/23 04:47:08;;;;;;;43.75;22.35;;;7.60;99.90;;;;;;4941467;28;20043;-89
2022/12/23 04:49:34;;;;;;;158.82;30.55;;;7.70;99.90;;;;;;4926560;29;20031;-88
2022/12/23 04:51:59;;;;;;;60.22;23.45;;;7.60;99.90;;;;;;4938818;29;20066;-88
2022/12/23 04:54:25;;;;;;;63.03;23.10;;;7.60;99.90;;;;;;4937159;29;20039;-86
2022/12/23 04:56:51;;;;;;;68.47;24.65;;;7.60;99.90;;;;;;4936667;29;20147;-87
2022/12/23 04:59:16;;;;;;;57.83;23.98;;;7.50;99.90;;;;;;4936450;28;20465;-89
2022/12/23 05:01:42;;;;;;;112.57;26.88;;;7.60;99.90;;;;;;4938144;28;20070;-87
2022/12/23 05:04:11;;;;;;;208.60;32.47;;;7.50;99.90;;;;;;4925865;29;20384;-87
2022/12/23 05:06:37;;;;;;;80.20;26.35;;;7.60;99.90;;;;;;4927849;29;20043;-87
2022/12/23 05:09:04;;;;;;;113.07;26.83;;;7.60;99.90;;;;;;4926953;29;20042;-88
2022/12/23 05:11:29;;;;;;;54.03;24.60;;;7.60;99.90;;;;;;4931750;29;20031;-86
2022/12/23 05:14:01;;;;;;;103.97;25.67;;;7.60;99.90;;;;;;4925593;28;20090;-86
2022/12/23 05:16:31;;;;;;;52.90;23.42;;;7.50;99.90;;;;;;4929996;29;20049;-86
2022/12/23 05:18:58;;;;;;;66.38;23.73;;;7.50;99.90;;;;;;4924577;28;20494;-86
2022/12/23 05:21:23;;;;;;;97.45;26.48;;;7.50;99.90;;;;;;4936970;28;20046;-86
2022/12/23 05:23:50;;;;;;;55.88;23.88;;;7.50;99.90;;;;;;4936553;29;20043;-86
2022/12/23 05:26:17;;;;;;;86.20;25.63;;;7.50;99.90;;;;;;4906598;29;20044;-86
2022/12/23 05:28:47;;;;;;;52.65;22.08;;;7.50;99.90;;;;;;4938402;28;20050;-87
2022/12/23 05:31:16;;;;;;;96.95;25.67;;;7.60;99.90;;;;;;4923315;29;20079;-84
2022/12/23 05:33:50;;;;;;;64.53;22.77;;;7.50;99.90;;;;;;4924021;29;20035;-87
2022/12/23 05:36:19;;;;;;;77.75;24.85;;;7.50;99.90;;;;;;4928906;29;20529;-86
2022/12/23 05:38:47;;;;;;;68.60;24.00;;;7.50;99.90;;;;;;4920775;29;20047;-85
2022/12/23 05:41:14;;;;;;;58.85;22.23;;;7.40;99.90;;;;;;4920372;29;20082;-86
2022/12/23 05:43:40;;;;;;;93.72;25.83;;;7.60;99.90;;;;;;4920443;29;20052;-88
2022/12/23 05:46:06;;;;;;;98.25;24.13;;;8.40;99.90;;;;;;4934446;29;20036;-87
2022/12/23 05:48:31;;;;;;;107.18;23.63;;;7.50;99.90;;;;;;4935153;28;20048;-84
2022/12/23 05:50:57;;;;;;;540.15;38.28;;;7.70;99.90;;;;;;4942591;29;20074;-85
2022/12/23 05:53:26;;;;;;;140.85;22.15;;;7.50;99.90;;;;;;4934879;28;20066;-86
2022/12/23 05:55:51;;;;;;;109.10;21.45;;;7.50;99.90;;;;;;4941377;28;20537;-85
2022/12/23 05:58:20;;;;;;;195.45;23.83;;;7.00;99.90;;;;;;4933281;29;20154;-84
2022/12/23 06:00:45;;;;;;;206.82;23.15;;;7.40;99.90;;;;;;4937165;28;20604;-87
2022/12/23 06:03:11;;;;;;;167.68;23.13;;;7.40;99.90;;;;;;4934441;29;20047;-84
2022/12/23 06:05:38;;;;;;;231.57;24.02;;;7.40;99.90;;;;;;4922732;29;20122;-86
2022/12/23 06:08:04;;;;;;;205.50;23.42;;;7.40;99.90;;;;;;4937033;28;20032;-84
2022/12/23 06:10:30;;;;;;;341.50;25.92;;;7.40;99.90;;;;;;4929962;29;20497;-85
2022/12/23 06:12:55;;;;;;;101.38;20.27;;;7.40;99.90;;;;;;4923416;29;20035;-86
2022/12/23 06:15:21;;;;;;;149.48;21.50;;;7.40;99.90;;;;;;4923912;29;20039;-86
2022/12/23 06:17:47;;;;;;;46.88;18.50;;;7.30;99.90;;;;;;4920799;29;20130;-86
2022/12/23 06:20:16;;;;;;;448.40;30.27;;;7.30;99.90;;;;;;4939070;29;20129;-86
2022/12/23 06:25:27;;;;;;;306.15;29.52;;;7.30;99.90;;;;;;4925045;29;20039;-85
2022/12/23 06:27:53;;;;;;;129.60;23.10;;;7.30;99.90;;;;;;4943778;28;20041;-88
2022/12/23 06:30:21;;;;;;;267.02;26.77;;;7.30;99.90;;;;;;4917217;29;20051;-85
2022/12/23 06:32:46;;;;;;;303.20;25.58;;;7.30;99.90;;;;;;4939257;29;20118;-86
2022/12/23 06:35:12;;;;;;;298.15;27.50;;;7.30;99.90;;;;;;4926342;29;20671;-86
2022/12/23 06:37:38;;;;;;;268.00;23.55;;;7.30;99.90;;;;;;4908939;29;20061;-86
2022/12/23 06:40:24;;;;;;;302.92;27.00;;;7.20;99.90;;;;;;4923051;29;20095;-88
2022/12/23 06:42:49;;;;;;;346.30;28.33;;;7.20;99.90;;;;;;4916503;29;20126;-85
2022/12/23 06:45:15;;;;;;;282.02;26.98;;;7.20;99.90;;;;;;4913418;29;20103;-86
2022/12/23 06:47:41;;;;;;;332.50;31.45;;;7.20;99.90;;;;;;4923690;29;20058;-86
2022/12/23 06:50:07;;;;;;;246.02;24.55;;;7.30;99.90;;;;;;4926318;29;20428;-85
2022/12/23 06:52:33;;;;;;;361.88;29.95;;;7.20;99.90;;;;;;4927209;29;20105;-86
2022/12/23 06:54:58;;;;;;;253.90;25.90;;;7.20;99.90;;;;;;4913946;29;20079;-86
2022/12/23 06:57:24;;;;;;;288.25;28.00;;;7.20;99.90;;;;;;4919032;29;20091;-86
2022/12/23 07:00:09;;;;;;;341.15;28.77;;;7.10;99.90;;;;;;4923772;29;20047;-85
2022/12/23 07:02:35;;;;;;;347.83;30.98;;;7.10;99.90;;;;;;4908803;29;20055;-85
2022/12/23 07:05:00;;;;;;;133.57;23.60;;;7.10;99.90;;;;;;4925824;29;20043;-84
2022/12/23 07:07:31;;;;;;;190.88;25.88;;;7.20;99.90;;;;;;4920656;29;21166;-84
2022/12/23 07:09:56;;;;;;;350.88;32.00;;;7.10;99.90;;;;;;4911155;29;20119;-85
2022/12/23 07:12:29;;;;;;;183.98;24.27;;;7.10;99.90;;;;;;4924215;29;20031;-86
2022/12/23 07:14:59;;;;;;;226.02;25.58;;;7.10;99.90;;;;;;4922617;29;20052;-86
2022/12/23 07:18:13;;;;;;;128.35;23.95;;;7.10;99.90;;;;;;4927783;29;20121;-85
2022/12/23 07:20:38;;;;;;;292.48;26.77;;;7.10;99.90;;;;;;4925000;29;20048;-86
2022/12/23 07:23:13;;;;;;;192.68;23.08;;;7.10;99.90;;;;;;4925273;29;20050;-86
2022/12/23 07:25:40;;;;;;;111.57;23.33;;;7.10;99.90;;;;;;4925544;29;20620;-86
2022/12/23 07:28:23;;;;;;;125.28;22.60;;;8.10;99.90;;;;;;4910406;29;20087;-86
2022/12/23 07:30:55;;;;;;;155.90;25.05;;;7.20;99.90;;;;;;4917903;29;20044;-86
2022/12/23 07:33:20;;;;;;;157.02;22.77;;;7.10;99.90;;;;;;4917810;29;20040;-86
2022/12/23 07:35:46;;;;;;;117.55;23.52;;;7.20;99.90;;;;;;4926837;29;20386;-86
2022/12/23 07:38:11;;;;;;;170.23;24.63;;;7.20;99.90;;;;;;4925240;29;20607;-86
2022/12/23 07:40:37;;;;;;;119.90;22.80;;;7.20;99.90;;;;;;4941593;28;20336;-86
2022/12/23 07:43:04;;;;;;;124.68;23.63;;;7.20;99.90;;;;;;4922668;29;20063;-85
2022/12/23 07:45:48;;;;;;;190.65;24.10;;;7.00;99.90;;;;;;4927305;29;20067;-86
2022/12/23 07:48:13;;;;;;;116.40;22.85;;;7.20;99.90;;;;;;4923291;29;20072;-86
2022/12/23 07:50:39;;;;;;;202.07;26.17;;;7.20;99.90;;;;;;4914495;29;20071;-86
2022/12/23 07:53:12;;;;;;;165.85;22.77;;;7.20;99.90;;;;;;4923067;29;20040;-86
2022/12/23 07:55:38;;;;;;;244.25;25.38;;;7.30;99.90;;;;;;4921161;29;20062;-86
2022/12/23 07:58:04;;;;;;;206.52;24.73;;;7.20;99.90;;;;;;4923510;29;21650;-86
2022/12/23 08:00:29;;;;;;;249.35;25.27;;;7.20;99.90;;;;;;4923762;29;20054;-86
2022/12/23 08:02:55;;;;;;;260.65;25.17;;;7.20;99.90;;;;;;4922369;29;20417;-86
2022/12/23 08:05:21;;;;;;;106.78;22.95;;;7.20;99.90;;;;;;4875391;29;20544;-87
2022/12/23 08:07:48;;;;;;;109.85;20.75;;;7.20;99.90;;;;;;4905910;29;20126;-87
2022/12/23 08:10:14;;;;;;;294.52;27.08;;;7.20;99.90;;;;;;4920056;29;20663;-86
2022/12/23 08:12:44;;;;;;;430.70;33.75;;;7.20;99.90;;;;;;4908862;29;20044;-86
2022/12/23 08:15:10;;;;;;;172.15;22.48;;;7.10;99.90;;;;;;4911854;29;20106;-86
2022/12/23 08:17:35;;;;;;;148.32;21.98;;;7.10;99.90;;;;;;4906601;29;20514;-86
2022/12/23 08:20:11;;;;;;;152.88;22.13;;;7.50;99.90;;;;;;4921880;29;20079;-86
2022/12/23 08:22:37;;;;;;;167.18;22.95;;;7.10;99.90;;;;;;4903993;29;20559;-87
2022/12/23 08:25:05;;;;;;;295.25;23.45;;;7.10;99.90;;;;;;4917293;29;20138;-87
2022/12/23 08:27:31;;;;;;;308.02;23.13;;;7.10;99.90;;;;;;4919101;29;20039;-86
2022/12/23 08:29:56;;;;;;;218.98;22.52;;;7.10;99.90;;;;;;4920918;29;20131;-87
2022/12/23 08:32:26;;;;;;;203.90;23.05;;;7.10;99.90;;;;;;4927031;29;20044;-86
2022/12/23 08:34:51;;;;;;;260.23;28.30;;;7.10;99.90;;;;;;4919142;29;20040;-86
2022/12/23 08:37:36;;;;;;;235.98;25.38;;;7.80;99.90;;;;;;4905710;29;20044;-87
2022/12/23 08:40:01;;;;;;;169.45;22.27;;;7.10;99.90;;;;;;4908903;29;20052;-86
2022/12/23 08:42:27;;;;;;;218.65;22.58;;;7.20;99.90;;;;;;4918048;29;20328;-86
2022/12/23 08:44:56;;;;;;;232.70;25.40;;;7.10;99.90;;;;;;4920967;29;20047;-86
2022/12/23 08:47:21;;;;;;;205.23;25.73;;;7.20;99.90;;;;;;4920379;29;20047;-85
2022/12/23 08:49:47;;;;;;;183.82;23.40;;;7.10;99.90;;;;;;4922154;29;20419;-86
2022/12/23 08:52:13;;;;;;;85.93;19.10;;;7.10;99.90;;;;;;4917391;29;20048;-86
2022/12/23 08:54:39;;;;;;;89.60;20.77;;;7.20;99.90;;;;;;4903239;29;20116;-87
2022/12/23 08:57:07;;;;;;;51.58;17.73;;;7.20;99.90;;;;;;4917651;29;20051;-86
2022/12/23 09:03:15;;;;;;;80.03;19.63;;;7.20;99.90;;;;;;4920020;29;20083;-87
2022/12/23 09:05:44;;;;;;;145.18;25.08;;;7.20;99.90;;;;;;4906443;29;20043;-86
2022/12/23 09:08:15;;;;;;;65.63;21.98;;;7.20;99.90;;;;;;4927142;29;20098;-88
2022/12/23 09:11:03;;;;;;;75.18;21.38;;;7.30;99.90;;;;;;4924982;29;20110;-87
2022/12/23 09:13:46;;;;;;;64.45;21.02;;;7.30;99.90;;;;;;4921987;29;20072;-87
2022/12/23 09:16:26;;;;;;;;;;;7.30;99.90;;;;;;4904649;29;20115;-87
2022/12/23 09:18:57;;;;;;;52.17;19.35;;;7.30;99.90;;;;;;4903766;29;19919;-88
2022/12/23 09:21:23;;;;;;;62.38;20.17;;;7.30;99.90;;;;;;4935351;28;20269;-88
2022/12/23 09:23:49;;;;;;;79.63;21.73;;;7.50;99.90;;;;;;4941515;28;20051;-87
2022/12/23 09:26:23;;;;;;;67.55;20.05;;;7.70;99.90;;;;;;4907097;29;20051;-87
2022/12/23 09:28:49;;;;;;;103.18;21.50;;;7.40;99.90;;;;;;4924919;29;20510;-88
2022/12/23 09:31:15;;;;;;;60.08;21.17;;;8.00;99.90;;;;;;4923716;29;20051;-87
2022/12/23 09:33:44;;;;;;;67.65;20.00;;;7.50;99.90;;;;;;4920364;29;20079;-87
2022/12/23 09:36:10;;;;;;;96.70;21.75;;;8.20;99.90;;;;;;4922890;29;20040;-87
2022/12/23 09:38:36;;;;;;;54.42;19.90;;;7.50;99.90;;;;;;4922853;29;20050;-88
2022/12/23 09:41:17;;;;;;;75.07;21.20;;;7.50;99.90;;;;;;4926128;29;20123;-87
2022/12/23 09:43:55;;;;;;;72.10;20.90;;;7.50;99.90;;;;;;4924909;29;20040;-88
2022/12/23 09:46:24;;;;;;;162.27;26.67;;;7.50;99.90;;;;;;4907026;29;20056;-88
2022/12/23 09:49:11;;;;;;;101.30;22.45;;;7.50;99.90;;;;;;4924149;29;20087;-88
2022/12/23 09:51:37;;;;;;;127.00;23.35;;;7.50;99.90;;;;;;4922044;29;20764;-88
2022/12/23 09:54:18;;;;;;;68.68;20.85;;;7.40;99.90;;;;;;4925131;29;20039;-88
2022/12/23 09:57:02;;;;;;;64.53;19.65;;;7.40;99.90;;;;;;4924245;29;20062;-88
2022/12/23 09:59:57;;;;;;;51.30;19.23;;;7.50;99.90;;;;;;4927134;29;20051;-88
2022/12/23 10:02:41;;;;;;;57.42;20.60;;;7.40;99.90;;;;;;4894533;29;20086;-88
2022/12/23 10:05:28;;;;;;;65.75;20.98;;;7.40;99.90;;;;;;4923994;29;20126;-87
2022/12/23 10:07:56;;;;;;;69.40;21.58;;;7.40;99.90;;;;;;4924095;29;20099;-88
2022/12/23 10:10:36;;;;;;;68.30;21.42;;;7.40;99.90;;;;;;4922718;29;20051;-89
2022/12/23 10:13:05;;;;;;;53.40;18.88;;;7.50;99.90;;;;;;4920250;29;20106;-88
2022/12/23 10:15:44;;;;;;;106.50;24.35;;;7.50;99.90;;;;;;4905547;29;20428;-88
2022/12/23 10:18:19;;;;;;;105.65;24.08;;;7.50;99.90;;;;;;4905202;29;20114;-88
2022/12/23 10:20:58;;;;;;;45.60;19.45;;;7.50;99.90;;;;;;4937176;29;20557;-88
2022/12/23 10:23:33;;;;;;;42.33;18.08;;;7.70;99.90;;;;;;4924024;29;20043;-88
2022/12/23 10:26:00;;;;;;;42.17;17.60;;;7.80;99.90;;;;;;4907311;29;20055;-88
2022/12/23 10:28:25;;;;;;;45.63;17.45;;;8.40;99.90;;;;;;4922589;29;20051;-89
2022/12/23 10:31:03;;;;;;;36.72;16.52;;;7.50;99.90;;;;;;4924361;29;20040;-89
2022/12/23 10:33:44;;;;;;;38.55;17.42;;;7.90;99.90;;;;;;4939477;29;20058;-88
2022/12/23 10:36:20;;;;;;;68.72;21.73;;;7.60;99.90;;;;;;4923577;29;20051;-88
2022/12/23 10:39:10;;;;;;;48.55;18.60;;;7.70;99.90;;;;;;4921857;29;20055;-89
2022/12/23 10:41:44;;;;;;;45.90;17.70;;;7.60;99.90;;;;;;4923481;29;20047;-88
2022/12/23 10:44:31;;;;;;;40.85;17.35;;;7.50;99.90;;;;;;4940827;28;20058;-88
2022/12/23 10:47:09;;;;;;;38.90;15.88;;;7.60;99.90;;;;;;4925878;29;20098;-88
2022/12/23 10:49:57;;;;;;;42.42;17.50;;;7.60;99.90;;;;;;4924185;29;21352;-89
2022/12/23 10:53:06;;;;;;;44.05;17.30;;;7.60;99.90;;;;;;4928146;29;20036;-87
2022/12/23 10:55:37;;;;;;;34.15;16.13;;;7.60;99.90;;;;;;4911184;29;20413;-87
2022/12/23 11:02:36;;;;;;;38.72;16.67;;;7.50;99.90;;;;;;4924299;29;20118;-88
2022/12/23 11:08:30;;;;;;;34.65;15.18;;;7.60;99.90;;;;;;4921126;29;20112;-89
2022/12/23 11:10:57;;;;;;;40.72;16.33;;;7.60;99.90;;;;;;4923482;29;20115;-86
2022/12/23 11:13:33;;;;;;;34.17;14.90;;;7.60;99.90;;;;;;4906883;29;20119;-89
2022/12/23 11:16:21;;;;;;;32.78;14.00;;;7.60;99.90;;;;;;4917600;29;20052;-88
2022/12/23 11:19:05;;;;;;;35.00;14.13;;;7.60;99.90;;;;;;4919206;29;20122;-88
2022/12/23 11:21:32;;;;;;;34.33;15.13;;;7.60;99.90;;;;;;4920362;29;20058;-89
2022/12/23 11:24:11;;;;;;;35.45;15.45;;;7.60;99.90;;;;;;4921344;29;20124;-89
2022/12/23 11:26:37;;;;;;;29.25;13.95;;;7.60;99.90;;;;;;4923182;29;20040;-88
2022/12/23 11:29:11;;;;;;;30.83;15.00;;;7.70;99.90;;;;;;4920587;29;20040;-88
2022/12/23 11:31:37;;;;;;;30.08;14.50;;;7.60;99.90;;;;;;4922027;29;20043;-87
2022/12/23 11:34:21;;;;;;;33.80;14.98;;;7.70;99.90;;;;;;4924429;29;20119;-87
2022/12/23 11:36:58;;;;;;;33.40;15.48;;;7.70;99.90;;;;;;4921206;29;20474;-88
2022/12/23 11:39:28;;;;;;;31.30;14.68;;;8.10;99.90;;;;;;4922668;29;20115;-88
2022/12/23 11:42:04;;;;;;;31.40;14.88;;;8.60;99.90;;;;;;4924193;29;20475;-87
2022/12/23 11:44:49;;;;;;;32.67;14.82;;;8.50;99.90;;;;;;4917687;29;20327;-88
2022/12/23 11:47:21;;;;;;;33.28;15.05;;;8.00;99.90;;;;;;4936232;28;20051;-88
2022/12/23 11:49:52;;;;;;;28.17;13.93;;;7.70;99.90;;;;;;4922362;29;20058;-88
2022/12/23 11:52:20;;;;;;;35.00;14.95;;;7.80;99.90;;;;;;4908954;29;20039;-86
2022/12/23 11:54:50;;;;;;;28.13;13.82;;;8.00;99.90;;;;;;4910182;29;20062;-85
2022/12/23 11:57:20;;;;;;;29.23;15.05;;;7.70;99.90;;;;;;4902946;29;20107;-87
2022/12/23 11:59:48;;;;;;;32.28;15.40;;;7.80;99.90;;;;;;4901033;29;20048;-88
2022/12/23 12:02:36;;;;;;;31.10;13.80;;;8.10;99.90;;;;;;4917726;29;20043;-86
2022/12/23 12:05:15;;;;;;;33.67;16.88;;;7.80;99.90;;;;;;4933947;28;20043;-88
2022/12/23 12:07:43;;;;;;;28.60;14.05;;;7.80;99.90;;;;;;4910184;29;20047;-87
2022/12/23 12:10:25;;;;;;;27.40;14.00;;;7.80;99.90;;;;;;4908875;29;20514;-86
2022/12/23 12:12:55;;;;;;;29.70;14.23;;;7.80;99.90;;;;;;4917791;29;20246;-88
2022/12/23 12:15:43;;;;;;;25.38;13.73;;;7.80;99.90;;;;;;4918962;29;20162;-86
2022/12/23 12:18:13;;;;;;;25.17;13.20;;;7.80;99.90;;;;;;4919315;29;20036;-87
2022/12/23 12:20:45;;;;;;;27.38;13.60;;;7.80;99.90;;;;;;4919671;29;20050;-86
2022/12/23 12:23:17;;;;;;;26.35;13.85;;;7.80;99.90;;;;;;4918319;29;20048;-87
2022/12/23 12:26:06;;;;;;;26.73;14.70;;;7.80;99.90;;;;;;4905983;29;20054;-89
2022/12/23 12:28:40;;;;;;;26.65;13.50;;;7.80;99.90;;;;;;4914160;29;20405;-88
2022/12/23 12:31:36;;;;;;;26.35;13.70;;;7.80;99.90;;;;;;4920075;29;20043;-87
2022/12/23 12:34:04;;;;;;;28.30;14.15;;;7.80;99.90;;;;;;4920352;29;20163;-89
2022/12/23 12:36:49;;;;;;;27.27;14.20;;;7.80;99.90;;;;;;4916348;29;20048;-86
2022/12/23 12:39:23;;;;;;;28.60;14.30;;;8.10;99.90;;;;;;4907697;29;20039;-89
2022/12/23 12:42:12;;;;;;;30.88;14.13;;;7.80;99.90;;;;;;4923275;29;20118;-88
2022/12/23 12:44:46;;;;;;;35.53;15.65;;;7.80;99.90;;;;;;4911357;29;20055;-89
2022/12/23 12:47:19;;;;;;;31.38;14.93;;;7.50;99.90;;;;;;4920815;29;20036;-88
2022/12/23 12:50:00;;;;;;;32.53;15.80;;;7.70;99.90;;;;;;4921600;29;20078;-88
2022/12/23 12:52:27;;;;;;;29.40;14.60;;;7.80;99.90;;;;;;4921381;29;20047;-88
2022/12/23 12:55:13;;;;;;;30.30;15.15;;;7.80;99.90;;;;;;4924843;29;20479;-89
2022/12/23 12:57:42;;;;;;;27.15;14.50;;;7.80;99.90;;;;;;4923903;29;20384;-87
2022/12/23 13:00:32;;;;;;;25.33;13.23;;;7.00;99.90;;;;;;4935360;29;20058;-88
2022/12/23 13:18:11;;;;;;;25.95;13.75;;;7.70;99.90;;;;;;4922793;29;20106;-88
2022/12/23 13:21:07;;;;;;;30.83;15.15;;;7.80;99.90;;;;;;4917886;29;20080;-87
2022/12/23 13:23:55;;;;;;;28.73;14.77;;;7.70;99.90;;;;;;4918173;29;20114;-87
2022/12/23 13:27:03;;;;;;;30.08;15.30;;;7.80;99.90;;;;;;4935033;28;20055;-86
2022/12/23 13:30:07;;;;;;;33.53;16.27;;;7.70;99.90;;;;;;4944421;28;20056;-87
2022/12/23 13:33:06;;;;;;;38.60;17.48;;;7.70;99.90;;;;;;4908269;29;20051;-87
2022/12/23 13:35:54;;;;;;;34.75;17.17;;;7.80;99.90;;;;;;4906703;29;20035;-86
2022/12/23 13:38:32;;;;;;;41.03;18.33;;;7.80;99.90;;;;;;4911638;29;20115;-86
2022/12/23 13:41:16;;;;;;;42.38;18.77;;;7.80;99.90;;;;;;4923814;29;20048;-86
2022/12/23 13:43:52;;;;;;;42.97;17.70;;;7.80;99.90;;;;;;4904425;29;20058;-85
2022/12/23 13:46:30;;;;;;;;;;;7.70;99.90;;;;;;4920971;29;20047;-85
2022/12/23 13:49:01;;;;;;;28.45;14.13;;;7.70;99.90;;;;;;4904777;29;20013;-85
2022/12/23 13:51:39;;;;;;;34.08;14.98;;;7.70;99.90;;;;;;4910684;29;20043;-88
2022/12/23 13:54:19;;;;;;;28.20;14.10;;;7.70;99.90;;;;;;4916956;29;20044;-87